createdAt,value
2022-11-17T05:00:34.382Z,1.79
2022-11-17T05:03:01.999Z,1.82
2022-11-17T05:05:30.151Z,1.83
2022-11-17T05:07:58.186Z,1.83
2022-11-17T05:10:46.829Z,1.83
2022-11-17T05:13:22.859Z,1.85
2022-11-17T05:16:09.623Z,1.82
2022-11-17T05:18:37.516Z,1.79
2022-11-17T05:21:07.721Z,1.77
2022-11-17T05:23:54.825Z,1.78
2022-11-17T05:26:26.440Z,1.78
2022-11-17T05:28:56.731Z,1.77
2022-11-17T05:31:25.935Z,1.74
2022-11-17T05:33:54.682Z,1.76
2022-11-17T05:36:24.442Z,1.76
2022-11-17T05:38:53.341Z,1.75
2022-11-17T05:41:23.093Z,1.79
2022-11-17T05:43:51.682Z,1.77
2022-11-17T05:46:21.091Z,1.74
2022-11-17T05:48:53.481Z,1.74
2022-11-17T05:51:26.381Z,1.74
2022-11-17T05:53:53.747Z,1.78
2022-11-17T05:56:36.534Z,1.78
2022-11-17T05:59:07.705Z,1.80
2022-11-17T06:01:39.350Z,1.82
2022-11-17T06:04:08.925Z,1.88
2022-11-17T06:06:38.250Z,1.92
2022-11-17T06:09:06.338Z,1.92
2022-11-17T06:11:34.586Z,1.93
2022-11-17T06:14:01.921Z,1.94
2022-11-17T06:16:33.692Z,1.95
2022-11-17T06:19:06.964Z,1.92
2022-11-17T06:22:04.549Z,1.92
2022-11-17T06:24:25.036Z,1.95
2022-11-17T06:26:52.684Z,2.01
2022-11-17T06:29:20.488Z,2.06
2022-11-17T06:31:48.323Z,2.11
2022-11-17T06:34:15.936Z,2.17
2022-11-17T06:36:43.175Z,2.21
2022-11-17T06:39:11.005Z,2.23
2022-11-17T06:41:40.259Z,2.22
2022-11-17T06:44:08.093Z,2.22
2022-11-17T06:46:38.354Z,2.24
2022-11-17T06:49:09.445Z,2.29
2022-11-17T06:51:38.897Z,2.27
2022-11-17T06:54:12.606Z,2.28
2022-11-17T06:56:40.841Z,2.32
2022-11-17T06:59:08.931Z,2.32
2022-11-17T07:01:38.667Z,2.32
2022-11-17T07:04:07.098Z,2.29
2022-11-17T07:06:37.469Z,2.27
2022-11-17T07:09:06.015Z,2.22
2022-11-17T07:11:36.660Z,2.17
2022-11-17T07:14:04.370Z,2.18
2022-11-17T07:16:32.857Z,2.24
2022-11-17T07:19:03.964Z,2.25
2022-11-17T07:21:31.440Z,2.22
2022-11-17T07:23:59.254Z,2.20
2022-11-17T07:26:26.990Z,2.20
2022-11-17T07:28:54.374Z,2.23
2022-11-17T07:31:22.105Z,2.28
2022-11-17T07:33:50.821Z,2.28
2022-11-17T07:36:18.785Z,2.29
2022-11-17T07:38:46.558Z,2.28
2022-11-17T07:41:15.736Z,2.28
2022-11-17T07:43:43.581Z,2.25
2022-11-17T07:46:13.730Z,2.23
2022-11-17T07:48:43.761Z,2.23
2022-11-17T07:51:14.572Z,2.22
2022-11-17T07:53:42.280Z,2.21
2022-11-17T07:56:12.652Z,2.27
2022-11-17T07:58:40.930Z,2.31
2022-11-17T08:01:11.282Z,2.34
2022-11-17T08:03:39.288Z,2.34
2022-11-17T08:06:09.604Z,2.32
2022-11-17T08:08:38.808Z,2.36
2022-11-17T08:11:11.935Z,2.36
2022-11-17T08:13:42.725Z,2.36
2022-11-17T08:16:11.363Z,2.36
2022-11-17T08:18:39.924Z,2.39
2022-11-17T08:21:10.469Z,2.45
2022-11-17T08:23:38.882Z,2.51
2022-11-17T08:26:08.623Z,2.59
2022-11-17T08:28:37.428Z,2.65
2022-11-17T08:31:07.462Z,2.71
2022-11-17T08:33:35.374Z,2.74
2022-11-17T08:36:07.765Z,2.78
2022-11-17T08:38:36.573Z,2.81
2022-11-17T08:41:08.665Z,2.86
2022-11-17T08:43:36.651Z,2.89
2022-11-17T08:46:04.847Z,2.90
2022-11-17T08:48:33.791Z,2.93
2022-11-17T08:51:06.616Z,2.97
2022-11-17T08:53:35.218Z,3.00
2022-11-17T08:56:08.047Z,2.99
2022-11-17T08:58:43.715Z,2.95
2022-11-17T09:01:13.489Z,2.90
2022-11-17T09:03:44.654Z,2.89
2022-11-17T09:06:13.792Z,2.92
2022-11-17T09:08:46.659Z,2.93
2022-11-17T09:11:16.938Z,2.95
2022-11-17T09:13:46.027Z,2.93
2022-11-17T09:16:15.338Z,2.94
2022-11-17T09:18:44.391Z,2.95
2022-11-17T09:21:16.084Z,2.91
2022-11-17T09:23:44.557Z,2.89
2022-11-17T09:26:14.567Z,2.93
2022-11-17T09:28:43.311Z,2.97
2022-11-17T09:31:16.971Z,3.03
2022-11-17T09:33:45.155Z,3.04
2022-11-17T09:36:14.972Z,3.04
2022-11-17T09:38:43.323Z,3.05
2022-11-17T09:41:26.964Z,3.03
2022-11-17T09:44:21.347Z,3.03
2022-11-17T09:46:55.546Z,3.04
2022-11-17T09:50:02.895Z,3.06
2022-11-17T09:53:06.556Z,3.06
2022-11-17T09:55:39.482Z,3.05
2022-11-17T09:58:47.619Z,3.05
2022-11-17T10:01:21.927Z,3.04
2022-11-17T10:03:54.121Z,3.01
2022-11-17T10:06:27.899Z,3.01
2022-11-17T10:09:01.409Z,3.01
2022-11-17T10:11:36.693Z,3.00
2022-11-17T10:14:11.234Z,3.03
2022-11-17T10:16:41.573Z,3.07
2022-11-17T10:19:39.591Z,3.12
2022-11-17T10:22:07.691Z,3.20
2022-11-17T10:24:34.905Z,3.29
2022-11-17T10:27:07.534Z,3.35
2022-11-17T10:29:35.001Z,3.33
2022-11-17T10:32:08.590Z,3.33
2022-11-17T10:34:41.347Z,3.32
2022-11-17T10:37:18.647Z,3.30
2022-11-17T10:39:46.391Z,3.32
2022-11-17T10:42:22.313Z,3.36
2022-11-17T10:44:53.209Z,3.37
2022-11-17T10:47:40.603Z,3.31
2022-11-17T10:50:28.351Z,3.27
2022-11-17T10:53:26.886Z,3.28
2022-11-17T10:55:58.311Z,3.34
2022-11-17T10:58:29.459Z,3.42
2022-11-17T11:01:03.142Z,3.49
2022-11-17T11:03:36.094Z,3.55
2022-11-17T11:06:23.264Z,3.61
2022-11-17T11:09:00.421Z,3.65
2022-11-17T11:11:45.745Z,3.69
2022-11-17T11:14:19.047Z,3.75
2022-11-17T11:16:48.706Z,3.83
2022-11-17T11:19:18.867Z,3.89
2022-11-17T11:22:09.202Z,3.87
2022-11-17T11:24:45.621Z,3.81
2022-11-17T11:27:42.184Z,3.73
2022-11-17T11:30:16.831Z,3.64
2022-11-17T11:32:43.939Z,3.57
2022-11-17T11:35:46.160Z,3.53
2022-11-17T11:38:33.563Z,3.52
2022-11-17T11:41:27.100Z,3.55
2022-11-17T11:44:21.593Z,3.56
2022-11-17T11:47:20.428Z,3.57
2022-11-17T11:50:16.389Z,3.58
2022-11-17T11:53:24.340Z,3.57
2022-11-17T11:56:10.146Z,3.54
2022-11-17T11:58:44.974Z,3.48
2022-11-17T12:01:14.147Z,3.44
2022-11-17T12:03:44.942Z,3.42
2022-11-17T12:06:54.676Z,3.42
2022-11-17T12:09:44.662Z,3.40
2022-11-17T12:12:18.763Z,3.39
2022-11-17T12:15:22.077Z,3.39
2022-11-17T12:18:16.696Z,3.34
2022-11-17T12:21:05.274Z,3.30
2022-11-17T12:23:54.592Z,3.30
2022-11-17T12:26:28.014Z,3.27
2022-11-17T12:29:21.055Z,3.24
2022-11-17T12:31:50.403Z,3.16
2022-11-17T12:34:31.027Z,3.14
2022-11-17T12:37:08.106Z,3.17
2022-11-17T12:39:58.713Z,3.14
2022-11-17T12:42:28.167Z,3.11
2022-11-17T12:45:04.482Z,3.06
2022-11-17T12:47:34.180Z,3.06
2022-11-17T12:50:20.595Z,3.07
2022-11-17T12:53:15.581Z,3.08
2022-11-17T12:56:08.587Z,3.14
2022-11-17T12:58:43.467Z,3.17
2022-11-17T13:01:49.297Z,3.18
2022-11-17T13:04:43.815Z,3.26
2022-11-17T13:07:24.208Z,3.30
2022-11-17T13:09:54.335Z,3.29
2022-11-17T13:12:24.872Z,3.31
2022-11-17T13:15:05.331Z,3.31
2022-11-17T13:17:44.524Z,3.32
2022-11-17T13:20:24.122Z,3.30
2022-11-17T13:23:14.881Z,3.25
2022-11-17T13:25:42.944Z,3.22
2022-11-17T13:28:32.080Z,3.23
2022-11-17T13:31:02.222Z,3.25
2022-11-17T13:33:34.330Z,3.28
2022-11-17T13:36:20.171Z,3.25
2022-11-17T13:38:50.102Z,3.23
2022-11-17T13:41:20.865Z,3.19
2022-11-17T13:43:51.183Z,3.18
2022-11-17T13:46:20.016Z,3.18
2022-11-17T13:48:50.642Z,3.20
2022-11-17T13:51:18.664Z,3.21
2022-11-17T13:54:13.171Z,3.15
2022-11-17T13:56:46.992Z,3.13
2022-11-17T13:59:24.516Z,3.11
2022-11-17T14:02:22.543Z,3.06
2022-11-17T14:05:15.009Z,3.02
2022-11-17T14:07:48.684Z,3.03
2022-11-17T14:10:25.456Z,3.02
2022-11-17T14:13:02.163Z,2.99
2022-11-17T14:15:37.346Z,2.91
2022-11-17T14:18:37.937Z,2.88
2022-11-17T14:21:11.291Z,2.90
2022-11-17T14:23:40.445Z,2.90
2022-11-17T14:26:21.892Z,2.84
2022-11-17T14:28:52.141Z,2.76
2022-11-17T14:31:21.136Z,2.68
2022-11-17T14:33:50.659Z,2.60
2022-11-17T14:36:19.222Z,2.54
2022-11-17T14:38:48.128Z,2.51
2022-11-17T14:41:17.900Z,2.45
2022-11-17T14:43:45.263Z,2.39
2022-11-17T14:46:25.163Z,2.34
2022-11-17T14:48:53.823Z,2.31
2022-11-17T14:51:21.764Z,2.27
2022-11-17T14:53:48.996Z,2.26
2022-11-17T14:56:18.677Z,2.22
2022-11-17T14:58:47.923Z,2.20
2022-11-17T15:01:26.142Z,2.17
2022-11-17T15:03:55.533Z,2.14
2022-11-17T15:06:23.270Z,2.14
2022-11-17T15:09:08.504Z,2.12
2022-11-17T15:11:39.366Z,2.10
2022-11-17T15:14:08.136Z,2.06
2022-11-17T15:16:36.283Z,2.03
2022-11-17T15:19:03.927Z,1.98
2022-11-17T15:21:31.205Z,1.90
2022-11-17T15:23:58.781Z,1.83
2022-11-17T15:26:26.752Z,1.76
2022-11-17T15:28:57.969Z,1.74
2022-11-17T15:31:27.068Z,1.73
2022-11-17T15:33:54.255Z,1.71
2022-11-17T15:36:25.725Z,1.68
2022-11-17T15:38:53.836Z,1.66
2022-11-17T15:41:21.782Z,1.62
2022-11-17T15:43:49.364Z,1.52
2022-11-17T15:46:18.846Z,1.41
2022-11-17T15:48:49.538Z,1.35
2022-11-17T15:51:21.791Z,1.30
2022-11-17T15:53:51.359Z,1.30
2022-11-17T15:56:21.795Z,1.29
2022-11-17T15:58:55.311Z,1.29
2022-11-17T16:01:37.933Z,1.26
2022-11-17T16:04:11.577Z,1.22
2022-11-17T16:06:41.575Z,1.21
2022-11-17T16:09:10.268Z,1.19
2022-11-17T16:11:39.025Z,1.22
2022-11-17T16:14:08.676Z,1.21
2022-11-17T16:16:39.455Z,1.23
2022-11-17T16:19:08.434Z,1.19
2022-11-17T16:21:36.211Z,1.14
2022-11-17T16:24:03.557Z,1.09
2022-11-17T16:26:31.831Z,1.04
2022-11-17T16:29:02.322Z,0.99
2022-11-17T16:31:32.741Z,0.95
2022-11-17T16:34:12.663Z,0.91
2022-11-17T16:36:42.400Z,0.79
2022-11-17T16:39:13.452Z,0.68
2022-11-17T16:41:43.769Z,0.68
2022-11-17T16:44:17.331Z,0.67
2022-11-17T16:46:50.812Z,0.67
2022-11-17T16:49:20.718Z,0.69
2022-11-17T16:51:50.730Z,0.72
2022-11-17T16:54:20.043Z,0.70
2022-11-17T16:56:47.981Z,0.57
2022-11-17T16:59:16.525Z,0.42
2022-11-17T17:01:44.778Z,0.36
2022-11-17T17:04:12.870Z,0.39
2022-11-17T17:06:42.642Z,0.45
2022-11-17T17:09:12.820Z,0.48
2022-11-17T17:11:41.920Z,0.48
2022-11-17T17:14:14.384Z,0.50
2022-11-17T17:16:43.335Z,0.51
2022-11-17T17:19:13.402Z,0.53
2022-11-17T17:21:42.517Z,0.59
2022-11-17T17:24:11.258Z,0.60
2022-11-17T17:26:40.428Z,0.59
2022-11-17T17:29:08.463Z,0.59
2022-11-17T17:31:38.841Z,0.50
2022-11-17T17:34:07.838Z,0.46
2022-11-17T17:36:39.078Z,0.45
2022-11-17T17:39:07.453Z,0.35
2022-11-17T17:41:39.807Z,0.30
2022-11-17T17:44:08.831Z,0.27
2022-11-17T17:46:38.765Z,0.28
2022-11-17T17:49:07.373Z,0.24
2022-11-17T17:51:40.702Z,0.16
2022-11-17T17:54:13.576Z,0.19
2022-11-17T17:56:41.365Z,0.25
2022-11-17T17:59:08.561Z,0.24
2022-11-17T18:01:37.792Z,0.26
2022-11-17T18:04:05.487Z,0.31
2022-11-17T18:06:40.834Z,0.33
2022-11-17T18:09:10.620Z,0.35
2022-11-17T18:11:46.169Z,0.36
2022-11-17T18:14:14.129Z,0.36
2022-11-17T18:16:41.636Z,0.34
2022-11-17T18:19:13.420Z,0.28
2022-11-17T18:21:40.993Z,0.28
2022-11-17T18:24:08.589Z,0.28
2022-11-17T18:26:36.414Z,0.27
2022-11-17T18:29:16.357Z,0.28
2022-11-17T18:31:46.913Z,0.26
2022-11-17T18:34:21.360Z,0.24
2022-11-17T18:36:51.282Z,0.22
2022-11-17T18:39:19.438Z,0.21
2022-11-17T18:41:47.782Z,0.23
2022-11-17T18:45:08.803Z,0.21
2022-11-17T18:47:36.551Z,0.12
2022-11-17T18:50:05.021Z,0.08
2022-11-17T18:52:32.305Z,0.07
2022-11-17T18:54:59.876Z,0.06
2022-11-17T18:57:27.310Z,0.07
2022-11-17T18:59:54.692Z,0.11
2022-11-17T19:02:22.354Z,0.12
2022-11-17T19:04:49.836Z,0.13
2022-11-17T19:07:17.496Z,0.18
2022-11-17T19:09:44.719Z,0.18
2022-11-17T19:12:12.808Z,0.15
2022-11-17T19:14:40.043Z,0.16
2022-11-17T19:17:07.313Z,0.17
2022-11-17T19:19:34.589Z,0.10
2022-11-17T19:22:01.948Z,0.04
2022-11-17T19:24:29.251Z,0.02
2022-11-17T19:26:56.489Z,-0.06
2022-11-17T19:29:23.814Z,-0.07
2022-11-17T19:31:52.980Z,-0.06
2022-11-17T19:34:20.271Z,-0.06
2022-11-17T19:36:47.719Z,-0.02
2022-11-17T19:39:15.560Z,0.02
2022-11-17T19:41:43.838Z,0.06
2022-11-17T19:44:11.558Z,0.07
2022-11-17T19:46:40.445Z,0.01
2022-11-17T19:49:08.982Z,-0.11
2022-11-17T19:51:37.320Z,-0.20
2022-11-17T19:54:09.345Z,-0.23
2022-11-17T19:56:38.617Z,-0.19
2022-11-17T19:59:09.722Z,-0.17
2022-11-17T20:01:40.236Z,-0.23
2022-11-17T20:04:08.262Z,-0.25
2022-11-17T20:06:39.010Z,-0.22
2022-11-17T20:09:09.296Z,-0.23
2022-11-17T20:11:37.176Z,-0.27
2022-11-17T20:14:04.898Z,-0.29
2022-11-17T20:16:32.744Z,-0.30
2022-11-17T20:19:02.253Z,-0.25
2022-11-17T20:21:31.593Z,-0.22
2022-11-17T20:23:59.854Z,-0.25
2022-11-17T20:26:32.240Z,-0.23
2022-11-17T20:29:00.959Z,-0.24
2022-11-17T20:31:31.714Z,-0.33
2022-11-17T20:34:00.987Z,-0.40
2022-11-17T20:36:30.087Z,-0.36
2022-11-17T20:39:00.570Z,-0.33
2022-11-17T20:41:29.680Z,-0.33
2022-11-17T20:43:59.324Z,-0.38
2022-11-17T20:46:27.249Z,-0.41
2022-11-17T20:48:55.025Z,-0.45
2022-11-17T20:51:25.438Z,-0.47
2022-11-17T20:53:53.096Z,-0.49
2022-11-17T20:56:21.665Z,-0.49
2022-11-17T20:58:49.575Z,-0.50
2022-11-17T21:01:20.094Z,-0.58
2022-11-17T21:03:47.872Z,-0.57
2022-11-17T21:06:16.217Z,-0.57
2022-11-17T21:08:45.492Z,-0.59
2022-11-17T21:11:39.825Z,-0.61
2022-11-17T21:14:09.368Z,-0.64
2022-11-17T21:16:39.164Z,-0.65
2022-11-17T21:19:06.932Z,-0.72
2022-11-17T21:21:34.414Z,-0.81
2022-11-17T21:24:02.549Z,-0.79
2022-11-17T21:26:32.511Z,-0.77
2022-11-17T21:29:06.007Z,-0.79
2022-11-17T21:31:34.389Z,-0.83
2022-11-17T21:34:04.683Z,-0.81
2022-11-17T21:36:33.935Z,-0.77
2022-11-17T21:39:02.192Z,-0.76
2022-11-17T21:41:34.944Z,-0.83
2022-11-17T21:44:03.420Z,-0.94
2022-11-17T21:46:34.204Z,-0.97
2022-11-17T21:49:02.025Z,-0.99
2022-11-17T21:51:35.340Z,-0.97
2022-11-17T21:54:05.036Z,-0.95
2022-11-17T21:56:33.138Z,-0.90
2022-11-17T21:59:08.071Z,-0.83
2022-11-17T22:01:36.426Z,-0.79
2022-11-17T22:04:03.917Z,-0.74
2022-11-17T22:06:31.589Z,-0.69
2022-11-17T22:08:59.983Z,-0.65
2022-11-17T22:11:36.547Z,-0.57
2022-11-17T22:14:06.707Z,-0.48
2022-11-17T22:16:36.332Z,-0.42
2022-11-17T22:19:04.469Z,-0.38
2022-11-17T22:21:33.526Z,-0.37
2022-11-17T22:24:01.241Z,-0.40
2022-11-17T22:26:29.066Z,-0.42
2022-11-17T22:28:56.448Z,-0.45
2022-11-17T22:31:24.183Z,-0.48
2022-11-17T22:33:52.434Z,-0.48
2022-11-17T22:36:19.940Z,-0.49
2022-11-17T22:38:51.685Z,-0.49
2022-11-17T22:41:21.054Z,-0.47
2022-11-17T22:43:58.449Z,-0.44
2022-11-17T22:46:27.442Z,-0.43
2022-11-17T22:48:55.576Z,-0.41
2022-11-17T22:51:41.740Z,-0.34
2022-11-17T22:54:09.011Z,-0.31
2022-11-17T22:56:37.178Z,-0.29
2022-11-17T22:59:04.389Z,-0.28
2022-11-17T23:01:32.138Z,-0.26
2022-11-17T23:04:00.291Z,-0.23
2022-11-17T23:06:28.084Z,-0.19
2022-11-17T23:08:57.565Z,-0.16
2022-11-17T23:11:41.893Z,-0.12
2022-11-17T23:14:13.114Z,-0.10
2022-11-17T23:16:40.954Z,-0.09
2022-11-17T23:19:12.786Z,-0.03
2022-11-17T23:21:40.805Z,0.04
2022-11-17T23:24:13.164Z,0.07
2022-11-17T23:26:42.344Z,0.08
2022-11-17T23:29:10.351Z,0.12
2022-11-17T23:31:37.859Z,0.16
2022-11-17T23:34:05.832Z,0.18
2022-11-17T23:36:33.358Z,0.17
2022-11-17T23:39:00.767Z,0.19
2022-11-17T23:41:29.110Z,0.19
2022-11-17T23:43:56.628Z,0.15
2022-11-17T23:46:26.798Z,0.15
2022-11-17T23:48:56.518Z,0.15
2022-11-17T23:51:26.447Z,0.11
2022-11-17T23:53:54.383Z,0.12
2022-11-17T23:56:22.932Z,0.11
2022-11-17T23:58:52.124Z,0.14
